Archival Weather

Republic

Farmingdale, New York (KFRG)

Report from: Monday, February 12, 2024 6:53 AM EST
Current time: Friday, June 14, 2024 8:15 AM EDT

Current weather – Weather history – Daily summaries
Weather forecast

Temperature2.2°C (36.0°F)
Wind chill-0.5°C (31.1°F)
Dew point-2.2°C (28.0°F)
Winds 5 kts (2.6 m/s, 5.8 mph) North-Northwest (340°)
Visibility10 mi. (16.1 km)
Clouds Ceiling: Overcast 8,500 ft. (2,591 m)
Altimeter29.94 in.Hg (1014 mB)
Relative humidity73 %
Density altitude-1,495 ft. (-456 m)
Sea-level pressure101.4 kPa (1014 mB, 29.94 in.Hg)
Max temp last 6 hours5.0°C (41.0°F)
Min temp last 6 hours1.1°C (34.0°F)
Remarks Fully automated report
Automated weather observing station without precipitation discriminator
Freezing rain sensor not operating
Pressure rising more quickly
Flight conditions Visual Meteorological Conditions
Raw dataKFRG 121153Z AUTO 34005KT 10SM OVC085 02/M02 A2994 RMK AO1 SLP138 T00221022 10050 20011 53010 FZRANO
An error has occurred. This application may no longer respond until reloaded. Reload 🗙